Terminal Aerodrome Forecast
Issued by NWS Grand Forks, ND

Home | Current Version | Previous Version | Graphics & Text | Print | Product List | Glossary On
Versions: 1 2 3 4 5 6 7 8 9 10 11 12 13 14 15 16 17 18 19 20 21
960
FTUS43 KFGF 201722
TAFFAR
TAF
KFAR 201722Z 2018/2118 20012KT P6SM BKN200
     FM202200 25013G18KT P6SM SCT250
     FM210100 28017G25KT P6SM FEW250
     FM210300 31022G31KT P6SM FEW150
     FM210700 32022G31KT P6SM BKN040=

USA.gov is the U.S. government's official web portal to all federal, state and local government web resources and services.